sensor_id;sensor_type;location;lat;lon;timestamp;P1;durP1;ratioP1;P2;durP2;ratioP2
20772;SDS011;10546;50.674;4.616;2022-12-16T07:03:46;119.90;;;23.80;;
20772;SDS011;10546;50.674;4.616;2022-12-16T07:06:30;101.00;;;23.50;;
20772;SDS011;10546;50.674;4.616;2022-12-16T07:09:14;97.20;;;26.03;;
20772;SDS011;10546;50.674;4.616;2022-12-16T07:11:58;136.03;;;22.33;;
20772;SDS011;10546;50.674;4.616;2022-12-16T07:14:42;91.13;;;25.73;;
20772;SDS011;10546;50.674;4.616;2022-12-16T07:17:26;69.57;;;20.03;;
20772;SDS011;10546;50.674;4.616;2022-12-16T07:20:11;95.90;;;23.13;;
20772;SDS011;10546;50.674;4.616;2022-12-16T07:22:55;111.60;;;27.43;;
20772;SDS011;10546;50.674;4.616;2022-12-16T07:25:39;94.73;;;26.23;;
20772;SDS011;10546;50.674;4.616;2022-12-16T07:28:23;91.97;;;26.43;;
20772;SDS011;10546;50.674;4.616;2022-12-16T07:31:07;67.17;;;17.27;;
20772;SDS011;10546;50.674;4.616;2022-12-16T07:33:51;98.90;;;25.47;;
20772;SDS011;10546;50.674;4.616;2022-12-16T07:36:35;81.93;;;27.77;;
20772;SDS011;10546;50.674;4.616;2022-12-16T07:39:19;68.40;;;17.40;;
20772;SDS011;10546;50.674;4.616;2022-12-16T07:42:03;72.33;;;23.87;;
20772;SDS011;10546;50.674;4.616;2022-12-16T07:44:47;85.73;;;23.37;;
20772;SDS011;10546;50.674;4.616;2022-12-16T07:47:31;79.97;;;21.17;;
20772;SDS011;10546;50.674;4.616;2022-12-16T07:50:15;156.80;;;29.13;;
20772;SDS011;10546;50.674;4.616;2022-12-16T07:53:00;92.80;;;25.93;;
20772;SDS011;10546;50.674;4.616;2022-12-16T07:55:44;97.37;;;25.13;;
20772;SDS011;10546;50.674;4.616;2022-12-16T07:58:28;82.77;;;24.07;;
20772;SDS011;10546;50.674;4.616;2022-12-16T08:01:13;74.47;;;23.13;;
20772;SDS011;10546;50.674;4.616;2022-12-16T08:03:58;74.20;;;23.93;;
20772;SDS011;10546;50.674;4.616;2022-12-16T08:06:56;80.70;;;23.37;;
20772;SDS011;10546;50.674;4.616;2022-12-16T08:09:40;102.80;;;27.60;;
20772;SDS011;10546;50.674;4.616;2022-12-16T08:12:24;73.20;;;22.87;;
20772;SDS011;10546;50.674;4.616;2022-12-16T08:15:08;93.17;;;25.90;;
20772;SDS011;10546;50.674;4.616;2022-12-16T08:17:53;62.97;;;23.70;;
20772;SDS011;10546;50.674;4.616;2022-12-16T08:20:37;56.60;;;21.23;;
20772;SDS011;10546;50.674;4.616;2022-12-16T08:23:22;61.57;;;21.87;;
20772;SDS011;10546;50.674;4.616;2022-12-16T08:26:06;73.93;;;25.00;;
20772;SDS011;10546;50.674;4.616;2022-12-16T08:28:50;71.30;;;24.70;;
20772;SDS011;10546;50.674;4.616;2022-12-16T08:31:35;73.57;;;26.73;;
20772;SDS011;10546;50.674;4.616;2022-12-16T08:34:19;88.77;;;30.40;;
20772;SDS011;10546;50.674;4.616;2022-12-16T08:37:03;86.67;;;31.23;;
20772;SDS011;10546;50.674;4.616;2022-12-16T08:39:47;83.60;;;30.20;;
20772;SDS011;10546;50.674;4.616;2022-12-16T08:42:31;78.77;;;27.33;;
20772;SDS011;10546;50.674;4.616;2022-12-16T08:45:15;73.67;;;26.73;;
20772;SDS011;10546;50.674;4.616;2022-12-16T08:47:59;69.13;;;24.90;;
20772;SDS011;10546;50.674;4.616;2022-12-16T08:50:44;71.27;;;26.43;;
20772;SDS011;10546;50.674;4.616;2022-12-16T08:53:28;69.03;;;27.80;;
20772;SDS011;10546;50.674;4.616;2022-12-16T08:56:12;65.60;;;24.77;;
20772;SDS011;10546;50.674;4.616;2022-12-16T08:58:56;64.80;;;26.07;;
20772;SDS011;10546;50.674;4.616;2022-12-16T09:01:40;66.73;;;25.47;;
20772;SDS011;10546;50.674;4.616;2022-12-16T09:04:24;64.80;;;26.03;;
20772;SDS011;10546;50.674;4.616;2022-12-16T09:07:08;71.80;;;24.40;;
20772;SDS011;10546;50.674;4.616;2022-12-16T09:09:52;67.20;;;24.40;;
20772;SDS011;10546;50.674;4.616;2022-12-16T09:12:36;66.53;;;24.90;;
20772;SDS011;10546;50.674;4.616;2022-12-16T09:15:20;72.00;;;25.40;;
20772;SDS011;10546;50.674;4.616;2022-12-16T09:18:07;71.23;;;26.37;;
20772;SDS011;10546;50.674;4.616;2022-12-16T09:20:51;65.00;;;22.57;;
20772;SDS011;10546;50.674;4.616;2022-12-16T09:23:36;53.77;;;22.10;;
20772;SDS011;10546;50.674;4.616;2022-12-16T09:26:20;66.00;;;24.67;;
20772;SDS011;10546;50.674;4.616;2022-12-16T09:29:04;63.00;;;23.07;;
20772;SDS011;10546;50.674;4.616;2022-12-16T09:31:48;67.37;;;27.20;;
20772;SDS011;10546;50.674;4.616;2022-12-16T09:34:32;51.43;;;20.57;;
20772;SDS011;10546;50.674;4.616;2022-12-16T09:37:16;74.13;;;28.77;;
20772;SDS011;10546;50.674;4.616;2022-12-16T09:40:00;62.67;;;24.00;;
20772;SDS011;10546;50.674;4.616;2022-12-16T09:49:00;70.40;;;23.97;;
20772;SDS011;10546;50.674;4.616;2022-12-16T09:52:03;54.80;;;22.73;;
20772;SDS011;10546;50.674;4.616;2022-12-16T09:54:54;61.33;;;22.90;;
20772;SDS011;10546;50.674;4.616;2022-12-16T09:57:39;56.00;;;22.23;;
20772;SDS011;10546;50.674;4.616;2022-12-16T10:00:25;55.20;;;22.83;;
20772;SDS011;10546;50.674;4.616;2022-12-16T10:03:26;63.57;;;25.53;;
20772;SDS011;10546;50.674;4.616;2022-12-16T10:07:04;66.93;;;23.80;;
20772;SDS011;10546;50.674;4.616;2022-12-16T10:15:24;56.27;;;21.37;;
20772;SDS011;10546;50.674;4.616;2022-12-16T10:21:21;68.97;;;26.10;;
20772;SDS011;10546;50.674;4.616;2022-12-16T10:27:16;63.70;;;23.40;;
20772;SDS011;10546;50.674;4.616;2022-12-16T10:30:11;68.57;;;24.23;;
20772;SDS011;10546;50.674;4.616;2022-12-16T10:32:56;63.87;;;24.90;;
20772;SDS011;10546;50.674;4.616;2022-12-16T10:35:48;62.80;;;21.60;;
20772;SDS011;10546;50.674;4.616;2022-12-16T10:41:36;74.50;;;29.27;;
20772;SDS011;10546;50.674;4.616;2022-12-16T10:47:31;52.03;;;19.83;;
20772;SDS011;10546;50.674;4.616;2022-12-16T10:50:15;60.47;;;23.63;;
20772;SDS011;10546;50.674;4.616;2022-12-16T10:53:00;56.13;;;23.40;;
20772;SDS011;10546;50.674;4.616;2022-12-16T10:56:22;57.57;;;23.23;;
20772;SDS011;10546;50.674;4.616;2022-12-16T10:59:37;47.13;;;20.20;;
20772;SDS011;10546;50.674;4.616;2022-12-16T11:02:23;47.07;;;19.50;;
20772;SDS011;10546;50.674;4.616;2022-12-16T11:11:11;49.63;;;20.63;;
20772;SDS011;10546;50.674;4.616;2022-12-16T11:14:13;46.83;;;20.90;;
20772;SDS011;10546;50.674;4.616;2022-12-16T11:17:16;47.27;;;19.80;;
20772;SDS011;10546;50.674;4.616;2022-12-16T11:26:15;46.37;;;18.53;;
20772;SDS011;10546;50.674;4.616;2022-12-16T11:35:08;39.30;;;17.80;;
20772;SDS011;10546;50.674;4.616;2022-12-16T11:37:55;35.73;;;16.97;;
20772;SDS011;10546;50.674;4.616;2022-12-16T11:40:42;37.07;;;17.30;;
20772;SDS011;10546;50.674;4.616;2022-12-16T11:43:27;31.13;;;15.67;;
20772;SDS011;10546;50.674;4.616;2022-12-16T11:46:20;33.53;;;16.17;;
20772;SDS011;10546;50.674;4.616;2022-12-16T11:49:13;32.80;;;16.37;;
20772;SDS011;10546;50.674;4.616;2022-12-16T11:52:09;33.30;;;16.07;;
20772;SDS011;10546;50.674;4.616;2022-12-16T11:54:58;33.30;;;16.60;;
20772;SDS011;10546;50.674;4.616;2022-12-16T12:01:11;35.17;;;16.97;;
20772;SDS011;10546;50.674;4.616;2022-12-16T12:03:59;43.13;;;16.90;;
20772;SDS011;10546;50.674;4.616;2022-12-16T12:06:51;33.03;;;15.40;;
20772;SDS011;10546;50.674;4.616;2022-12-16T12:09:50;32.43;;;13.93;;
20772;SDS011;10546;50.674;4.616;2022-12-16T12:12:47;28.27;;;14.27;;
20772;SDS011;10546;50.674;4.616;2022-12-16T12:15:49;29.77;;;14.43;;
20772;SDS011;10546;50.674;4.616;2022-12-16T12:18:49;27.63;;;13.77;;
20772;SDS011;10546;50.674;4.616;2022-12-16T12:22:00;29.73;;;14.87;;
20772;SDS011;10546;50.674;4.616;2022-12-16T12:25:11;29.40;;;14.90;;
20772;SDS011;10546;50.674;4.616;2022-12-16T12:31:34;32.47;;;17.37;;
20772;SDS011;10546;50.674;4.616;2022-12-16T12:34:39;35.17;;;16.77;;
20772;SDS011;10546;50.674;4.616;2022-12-16T12:37:52;30.20;;;15.90;;
20772;SDS011;10546;50.674;4.616;2022-12-16T12:44:04;30.80;;;14.37;;
20772;SDS011;10546;50.674;4.616;2022-12-16T12:47:01;30.27;;;14.80;;
20772;SDS011;10546;50.674;4.616;2022-12-16T12:55:59;32.23;;;16.80;;
20772;SDS011;10546;50.674;4.616;2022-12-16T12:58:45;30.83;;;16.03;;
20772;SDS011;10546;50.674;4.616;2022-12-16T13:01:32;33.47;;;17.23;;
20772;SDS011;10546;50.674;4.616;2022-12-16T13:04:20;35.13;;;15.97;;
20772;SDS011;10546;50.674;4.616;2022-12-16T13:07:05;34.10;;;16.77;;
20772;SDS011;10546;50.674;4.616;2022-12-16T13:16:03;32.00;;;13.93;;
20772;SDS011;10546;50.674;4.616;2022-12-16T13:28:35;28.73;;;15.60;;
20772;SDS011;10546;50.674;4.616;2022-12-16T13:31:21;36.03;;;17.67;;
20772;SDS011;10546;50.674;4.616;2022-12-16T13:34:17;33.33;;;14.00;;
20772;SDS011;10546;50.674;4.616;2022-12-16T13:37:17;41.73;;;19.07;;
20772;SDS011;10546;50.674;4.616;2022-12-16T13:40:21;28.83;;;15.00;;
20772;SDS011;10546;50.674;4.616;2022-12-16T13:44:07;41.77;;;18.57;;
20772;SDS011;10546;50.674;4.616;2022-12-16T13:47:15;31.30;;;14.47;;
20772;SDS011;10546;50.674;4.616;2022-12-16T13:55:43;29.33;;;14.00;;
20772;SDS011;10546;50.674;4.616;2022-12-16T13:58:46;29.63;;;14.30;;
20772;SDS011;10546;50.674;4.616;2022-12-16T14:01:37;32.27;;;15.20;;
20772;SDS011;10546;50.674;4.616;2022-12-16T14:04:51;29.37;;;15.40;;
20772;SDS011;10546;50.674;4.616;2022-12-16T14:07:38;30.50;;;14.87;;
20772;SDS011;10546;50.674;4.616;2022-12-16T14:10:24;37.17;;;17.47;;
20772;SDS011;10546;50.674;4.616;2022-12-16T14:16:31;29.63;;;14.73;;
20772;SDS011;10546;50.674;4.616;2022-12-16T14:22:39;31.40;;;13.83;;
20772;SDS011;10546;50.674;4.616;2022-12-16T14:25:33;27.07;;;14.00;;
20772;SDS011;10546;50.674;4.616;2022-12-16T14:31:38;28.93;;;14.07;;
20772;SDS011;10546;50.674;4.616;2022-12-16T14:34:31;28.20;;;14.07;;
20772;SDS011;10546;50.674;4.616;2022-12-16T14:37:18;31.77;;;13.37;;
20772;SDS011;10546;50.674;4.616;2022-12-16T14:40:17;30.80;;;14.03;;
20772;SDS011;10546;50.674;4.616;2022-12-16T14:43:01;30.13;;;13.80;;
20772;SDS011;10546;50.674;4.616;2022-12-16T14:45:48;29.27;;;14.00;;
20772;SDS011;10546;50.674;4.616;2022-12-16T14:48:34;33.43;;;13.83;;
20772;SDS011;10546;50.674;4.616;2022-12-16T14:54:16;31.40;;;13.40;;
20772;SDS011;10546;50.674;4.616;2022-12-16T14:57:03;28.30;;;12.63;;
20772;SDS011;10546;50.674;4.616;2022-12-16T15:03:00;25.40;;;12.03;;
20772;SDS011;10546;50.674;4.616;2022-12-16T15:05:56;26.87;;;12.80;;
20772;SDS011;10546;50.674;4.616;2022-12-16T15:08:49;25.13;;;11.83;;
20772;SDS011;10546;50.674;4.616;2022-12-16T15:11:38;27.70;;;12.47;;
20772;SDS011;10546;50.674;4.616;2022-12-16T15:14:27;28.43;;;13.37;;
20772;SDS011;10546;50.674;4.616;2022-12-16T15:17:25;29.47;;;13.90;;
20772;SDS011;10546;50.674;4.616;2022-12-16T15:23:32;30.57;;;13.60;;
20772;SDS011;10546;50.674;4.616;2022-12-16T15:26:22;30.37;;;14.50;;
20772;SDS011;10546;50.674;4.616;2022-12-16T15:35:08;31.73;;;14.70;;
20772;SDS011;10546;50.674;4.616;2022-12-16T15:37:53;38.43;;;15.60;;
20772;SDS011;10546;50.674;4.616;2022-12-16T15:40:38;28.33;;;14.13;;
20772;SDS011;10546;50.674;4.616;2022-12-16T15:43:32;34.17;;;15.60;;
20772;SDS011;10546;50.674;4.616;2022-12-16T15:46:25;29.83;;;14.27;;
20772;SDS011;10546;50.674;4.616;2022-12-16T15:49:18;31.63;;;15.17;;
20772;SDS011;10546;50.674;4.616;2022-12-16T15:52:20;33.57;;;13.70;;
20772;SDS011;10546;50.674;4.616;2022-12-16T15:55:20;32.43;;;15.07;;
20772;SDS011;10546;50.674;4.616;2022-12-16T15:58:10;32.10;;;16.03;;
20772;SDS011;10546;50.674;4.616;2022-12-16T16:01:03;36.37;;;16.97;;
20772;SDS011;10546;50.674;4.616;2022-12-16T16:03:49;35.33;;;16.30;;
20772;SDS011;10546;50.674;4.616;2022-12-16T16:06:35;36.73;;;16.43;;
20772;SDS011;10546;50.674;4.616;2022-12-16T16:12:13;33.63;;;14.17;;
20772;SDS011;10546;50.674;4.616;2022-12-16T16:14:59;30.17;;;15.20;;
20772;SDS011;10546;50.674;4.616;2022-12-16T16:17:43;42.37;;;15.53;;
20772;SDS011;10546;50.674;4.616;2022-12-16T16:20:30;41.03;;;20.53;;
20772;SDS011;10546;50.674;4.616;2022-12-16T16:23:14;35.00;;;15.40;;
20772;SDS011;10546;50.674;4.616;2022-12-16T16:25:58;31.60;;;15.43;;
20772;SDS011;10546;50.674;4.616;2022-12-16T16:28:45;33.60;;;14.37;;
20772;SDS011;10546;50.674;4.616;2022-12-16T16:31:37;37.10;;;16.17;;
20772;SDS011;10546;50.674;4.616;2022-12-16T16:34:21;32.77;;;15.20;;
20772;SDS011;10546;50.674;4.616;2022-12-16T16:37:07;33.70;;;14.90;;
20772;SDS011;10546;50.674;4.616;2022-12-16T16:39:59;31.53;;;15.40;;
20772;SDS011;10546;50.674;4.616;2022-12-16T16:42:44;31.20;;;15.77;;
20772;SDS011;10546;50.674;4.616;2022-12-16T16:45:28;46.00;;;20.37;;
20772;SDS011;10546;50.674;4.616;2022-12-16T16:48:16;78.93;;;30.30;;
20772;SDS011;10546;50.674;4.616;2022-12-16T16:51:01;42.50;;;18.87;;
20772;SDS011;10546;50.674;4.616;2022-12-16T16:53:46;50.60;;;24.83;;
20772;SDS011;10546;50.674;4.616;2022-12-16T16:56:32;49.47;;;22.13;;
20772;SDS011;10546;50.674;4.616;2022-12-16T16:59:17;72.37;;;33.43;;
20772;SDS011;10546;50.674;4.616;2022-12-16T17:02:16;55.83;;;24.20;;
20772;SDS011;10546;50.674;4.616;2022-12-16T17:05:02;55.13;;;23.80;;
20772;SDS011;10546;50.674;4.616;2022-12-16T17:07:46;59.37;;;24.70;;
20772;SDS011;10546;50.674;4.616;2022-12-16T17:10:30;60.67;;;25.93;;
20772;SDS011;10546;50.674;4.616;2022-12-16T17:13:14;70.40;;;37.20;;
20772;SDS011;10546;50.674;4.616;2022-12-16T17:15:58;61.07;;;28.80;;
20772;SDS011;10546;50.674;4.616;2022-12-16T17:18:42;50.67;;;25.63;;
20772;SDS011;10546;50.674;4.616;2022-12-16T17:21:26;49.30;;;22.67;;
20772;SDS011;10546;50.674;4.616;2022-12-16T17:24:10;57.60;;;27.20;;
20772;SDS011;10546;50.674;4.616;2022-12-16T17:26:54;44.10;;;19.23;;
20772;SDS011;10546;50.674;4.616;2022-12-16T17:29:38;42.23;;;17.97;;
20772;SDS011;10546;50.674;4.616;2022-12-16T17:32:42;50.27;;;24.17;;
20772;SDS011;10546;50.674;4.616;2022-12-16T17:35:40;47.37;;;22.20;;
20772;SDS011;10546;50.674;4.616;2022-12-16T17:38:24;48.93;;;22.03;;
20772;SDS011;10546;50.674;4.616;2022-12-16T17:41:09;47.90;;;21.70;;
20772;SDS011;10546;50.674;4.616;2022-12-16T17:43:53;54.40;;;25.23;;
20772;SDS011;10546;50.674;4.616;2022-12-16T17:46:37;49.37;;;22.57;;
20772;SDS011;10546;50.674;4.616;2022-12-16T17:49:21;42.83;;;19.50;;
20772;SDS011;10546;50.674;4.616;2022-12-16T17:52:05;44.27;;;19.53;;
20772;SDS011;10546;50.674;4.616;2022-12-16T17:54:49;48.77;;;21.00;;
20772;SDS011;10546;50.674;4.616;2022-12-16T17:57:33;46.07;;;21.27;;
20772;SDS011;10546;50.674;4.616;2022-12-16T18:00:17;60.57;;;26.80;;
20772;SDS011;10546;50.674;4.616;2022-12-16T18:03:01;71.00;;;36.30;;
20772;SDS011;10546;50.674;4.616;2022-12-16T18:05:45;65.67;;;33.43;;
20772;SDS011;10546;50.674;4.616;2022-12-16T18:08:30;60.07;;;28.13;;
20772;SDS011;10546;50.674;4.616;2022-12-16T18:11:14;66.00;;;33.93;;
20772;SDS011;10546;50.674;4.616;2022-12-16T18:13:58;62.13;;;28.97;;
20772;SDS011;10546;50.674;4.616;2022-12-16T18:16:42;65.37;;;29.30;;
20772;SDS011;10546;50.674;4.616;2022-12-16T18:19:26;60.10;;;29.70;;
20772;SDS011;10546;50.674;4.616;2022-12-16T18:22:11;62.37;;;28.43;;
20772;SDS011;10546;50.674;4.616;2022-12-16T18:24:55;71.23;;;30.97;;
20772;SDS011;10546;50.674;4.616;2022-12-16T18:27:39;68.17;;;28.77;;
20772;SDS011;10546;50.674;4.616;2022-12-16T18:30:23;77.97;;;31.90;;
20772;SDS011;10546;50.674;4.616;2022-12-16T18:33:07;95.70;;;42.20;;
20772;SDS011;10546;50.674;4.616;2022-12-16T18:35:51;81.83;;;38.10;;
20772;SDS011;10546;50.674;4.616;2022-12-16T18:38:35;67.77;;;32.43;;
20772;SDS011;10546;50.674;4.616;2022-12-16T18:41:20;71.47;;;31.93;;
20772;SDS011;10546;50.674;4.616;2022-12-16T18:44:05;74.43;;;35.03;;
20772;SDS011;10546;50.674;4.616;2022-12-16T18:46:52;73.50;;;33.87;;
20772;SDS011;10546;50.674;4.616;2022-12-16T18:49:36;79.27;;;35.73;;
20772;SDS011;10546;50.674;4.616;2022-12-16T18:52:20;76.63;;;35.03;;
20772;SDS011;10546;50.674;4.616;2022-12-16T18:55:24;69.53;;;31.20;;
20772;SDS011;10546;50.674;4.616;2022-12-16T18:58:08;77.47;;;34.80;;
20772;SDS011;10546;50.674;4.616;2022-12-16T19:01:02;84.47;;;36.77;;
20772;SDS011;10546;50.674;4.616;2022-12-16T19:03:49;77.97;;;35.43;;
20772;SDS011;10546;50.674;4.616;2022-12-16T19:06:33;79.77;;;35.10;;
20772;SDS011;10546;50.674;4.616;2022-12-16T19:09:17;84.47;;;36.50;;
20772;SDS011;10546;50.674;4.616;2022-12-16T19:12:01;85.53;;;36.77;;
20772;SDS011;10546;50.674;4.616;2022-12-16T19:14:45;86.73;;;39.47;;
20772;SDS011;10546;50.674;4.616;2022-12-16T19:17:29;87.47;;;36.67;;
20772;SDS011;10546;50.674;4.616;2022-12-16T19:20:13;89.47;;;38.03;;
20772;SDS011;10546;50.674;4.616;2022-12-16T19:22:57;95.10;;;40.73;;
20772;SDS011;10546;50.674;4.616;2022-12-16T19:25:41;80.90;;;38.83;;
20772;SDS011;10546;50.674;4.616;2022-12-16T19:28:25;99.50;;;42.93;;
20772;SDS011;10546;50.674;4.616;2022-12-16T19:31:09;102.50;;;44.30;;
20772;SDS011;10546;50.674;4.616;2022-12-16T19:33:54;109.03;;;47.30;;
20772;SDS011;10546;50.674;4.616;2022-12-16T19:36:38;106.33;;;47.43;;
20772;SDS011;10546;50.674;4.616;2022-12-16T19:39:23;98.03;;;44.17;;
20772;SDS011;10546;50.674;4.616;2022-12-16T19:42:07;97.80;;;41.10;;
20772;SDS011;10546;50.674;4.616;2022-12-16T19:44:54;90.93;;;38.70;;
20772;SDS011;10546;50.674;4.616;2022-12-16T19:47:38;97.73;;;39.30;;
20772;SDS011;10546;50.674;4.616;2022-12-16T19:50:22;89.97;;;40.30;;
20772;SDS011;10546;50.674;4.616;2022-12-16T19:53:06;139.77;;;56.07;;
20772;SDS011;10546;50.674;4.616;2022-12-16T19:55:57;105.37;;;46.93;;
20772;SDS011;10546;50.674;4.616;2022-12-16T19:58:42;98.40;;;44.73;;
20772;SDS011;10546;50.674;4.616;2022-12-16T20:01:27;106.47;;;45.37;;
20772;SDS011;10546;50.674;4.616;2022-12-16T20:04:11;83.23;;;37.47;;
20772;SDS011;10546;50.674;4.616;2022-12-16T20:06:55;98.60;;;42.60;;
20772;SDS011;10546;50.674;4.616;2022-12-16T20:09:39;89.70;;;38.40;;
20772;SDS011;10546;50.674;4.616;2022-12-16T20:12:24;87.33;;;38.00;;
20772;SDS011;10546;50.674;4.616;2022-12-16T20:15:08;107.77;;;46.57;;
20772;SDS011;10546;50.674;4.616;2022-12-16T20:17:52;135.03;;;58.57;;
20772;SDS011;10546;50.674;4.616;2022-12-16T20:20:36;165.23;;;76.73;;
20772;SDS011;10546;50.674;4.616;2022-12-16T20:23:20;90.53;;;41.90;;
20772;SDS011;10546;50.674;4.616;2022-12-16T20:26:04;141.60;;;63.03;;
20772;SDS011;10546;50.674;4.616;2022-12-16T20:28:48;130.13;;;58.50;;
20772;SDS011;10546;50.674;4.616;2022-12-16T20:31:33;237.03;;;98.23;;
20772;SDS011;10546;50.674;4.616;2022-12-16T20:34:17;150.53;;;71.10;;
20772;SDS011;10546;50.674;4.616;2022-12-16T20:37:02;485.73;;;216.57;;
20772;SDS011;10546;50.674;4.616;2022-12-16T20:39:46;145.63;;;64.37;;
20772;SDS011;10546;50.674;4.616;2022-12-16T20:42:30;92.70;;;40.20;;
20772;SDS011;10546;50.674;4.616;2022-12-16T20:45:14;142.33;;;67.93;;
20772;SDS011;10546;50.674;4.616;2022-12-16T20:47:59;88.93;;;40.23;;
20772;SDS011;10546;50.674;4.616;2022-12-16T20:50:51;104.93;;;49.50;;
20772;SDS011;10546;50.674;4.616;2022-12-16T20:53:39;133.07;;;63.27;;
20772;SDS011;10546;50.674;4.616;2022-12-16T20:56:24;163.90;;;72.47;;
20772;SDS011;10546;50.674;4.616;2022-12-16T20:59:08;199.90;;;100.33;;
20772;SDS011;10546;50.674;4.616;2022-12-16T21:01:52;123.77;;;57.17;;
20772;SDS011;10546;50.674;4.616;2022-12-16T21:04:36;120.60;;;51.07;;
20772;SDS011;10546;50.674;4.616;2022-12-16T21:07:20;204.50;;;90.13;;
20772;SDS011;10546;50.674;4.616;2022-12-16T21:10:05;133.30;;;56.53;;
20772;SDS011;10546;50.674;4.616;2022-12-16T21:12:49;147.20;;;61.20;;
20772;SDS011;10546;50.674;4.616;2022-12-16T21:15:33;253.93;;;105.07;;
20772;SDS011;10546;50.674;4.616;2022-12-16T21:18:19;185.47;;;77.17;;
20772;SDS011;10546;50.674;4.616;2022-12-16T21:21:03;95.40;;;39.93;;
20772;SDS011;10546;50.674;4.616;2022-12-16T21:23:47;313.40;;;125.90;;
20772;SDS011;10546;50.674;4.616;2022-12-16T21:26:31;306.47;;;117.27;;
20772;SDS011;10546;50.674;4.616;2022-12-16T21:29:15;189.30;;;79.33;;
20772;SDS011;10546;50.674;4.616;2022-12-16T21:31:59;254.07;;;106.83;;
20772;SDS011;10546;50.674;4.616;2022-12-16T21:34:43;127.23;;;52.60;;
20772;SDS011;10546;50.674;4.616;2022-12-16T21:37:27;107.23;;;48.50;;
20772;SDS011;10546;50.674;4.616;2022-12-16T21:40:11;84.97;;;37.40;;
20772;SDS011;10546;50.674;4.616;2022-12-16T21:42:55;105.03;;;42.27;;
20772;SDS011;10546;50.674;4.616;2022-12-16T21:45:39;90.10;;;39.73;;
20772;SDS011;10546;50.674;4.616;2022-12-16T21:48:23;91.93;;;39.63;;
20772;SDS011;10546;50.674;4.616;2022-12-16T21:51:07;96.47;;;42.67;;
20772;SDS011;10546;50.674;4.616;2022-12-16T21:53:51;84.13;;;37.00;;
20772;SDS011;10546;50.674;4.616;2022-12-16T21:56:36;208.60;;;99.77;;
20772;SDS011;10546;50.674;4.616;2022-12-16T21:59:20;223.07;;;108.07;;
20772;SDS011;10546;50.674;4.616;2022-12-16T22:02:04;153.27;;;71.00;;
20772;SDS011;10546;50.674;4.616;2022-12-16T22:04:48;143.27;;;63.43;;
20772;SDS011;10546;50.674;4.616;2022-12-16T22:07:32;93.27;;;41.17;;
20772;SDS011;10546;50.674;4.616;2022-12-16T22:10:16;99.17;;;40.40;;
20772;SDS011;10546;50.674;4.616;2022-12-16T22:13:11;96.67;;;43.80;;
20772;SDS011;10546;50.674;4.616;2022-12-16T22:15:56;92.10;;;39.83;;
20772;SDS011;10546;50.674;4.616;2022-12-16T22:18:41;100.70;;;42.13;;
20772;SDS011;10546;50.674;4.616;2022-12-16T22:21:25;82.23;;;35.30;;
20772;SDS011;10546;50.674;4.616;2022-12-16T22:24:10;98.33;;;41.33;;
20772;SDS011;10546;50.674;4.616;2022-12-16T22:26:54;85.33;;;37.20;;
20772;SDS011;10546;50.674;4.616;2022-12-16T22:29:38;87.47;;;37.33;;
20772;SDS011;10546;50.674;4.616;2022-12-16T22:32:22;82.30;;;36.33;;
20772;SDS011;10546;50.674;4.616;2022-12-16T22:35:06;86.10;;;36.20;;
20772;SDS011;10546;50.674;4.616;2022-12-16T22:37:50;85.33;;;37.00;;
20772;SDS011;10546;50.674;4.616;2022-12-16T22:40:34;83.00;;;39.13;;
20772;SDS011;10546;50.674;4.616;2022-12-16T22:43:25;86.20;;;34.83;;
20772;SDS011;10546;50.674;4.616;2022-12-16T22:46:13;75.17;;;34.83;;
20772;SDS011;10546;50.674;4.616;2022-12-16T22:48:58;85.43;;;36.77;;
20772;SDS011;10546;50.674;4.616;2022-12-16T22:51:42;98.27;;;43.33;;
20772;SDS011;10546;50.674;4.616;2022-12-16T22:54:26;86.73;;;36.23;;
20772;SDS011;10546;50.674;4.616;2022-12-16T22:57:10;89.17;;;35.83;;
20772;SDS011;10546;50.674;4.616;2022-12-16T22:59:54;90.80;;;38.33;;
20772;SDS011;10546;50.674;4.616;2022-12-16T23:02:38;81.13;;;35.17;;
20772;SDS011;10546;50.674;4.616;2022-12-16T23:05:22;80.00;;;33.63;;
20772;SDS011;10546;50.674;4.616;2022-12-16T23:08:06;86.80;;;37.33;;
20772;SDS011;10546;50.674;4.616;2022-12-16T23:10:54;95.60;;;37.83;;
20772;SDS011;10546;50.674;4.616;2022-12-16T23:13:39;98.10;;;40.20;;
20772;SDS011;10546;50.674;4.616;2022-12-16T23:16:23;89.07;;;37.97;;
20772;SDS011;10546;50.674;4.616;2022-12-16T23:19:07;89.17;;;35.60;;
20772;SDS011;10546;50.674;4.616;2022-12-16T23:21:52;85.47;;;35.43;;
20772;SDS011;10546;50.674;4.616;2022-12-16T23:24:35;82.07;;;35.13;;
20772;SDS011;10546;50.674;4.616;2022-12-16T23:27:19;77.87;;;35.13;;
20772;SDS011;10546;50.674;4.616;2022-12-16T23:30:04;91.10;;;34.57;;
20772;SDS011;10546;50.674;4.616;2022-12-16T23:32:54;91.77;;;36.30;;
20772;SDS011;10546;50.674;4.616;2022-12-16T23:35:42;80.47;;;33.10;;
20772;SDS011;10546;50.674;4.616;2022-12-16T23:38:26;76.07;;;33.90;;
20772;SDS011;10546;50.674;4.616;2022-12-16T23:41:11;88.83;;;35.20;;
20772;SDS011;10546;50.674;4.616;2022-12-16T23:43:55;79.30;;;33.63;;
20772;SDS011;10546;50.674;4.616;2022-12-16T23:46:39;74.43;;;32.70;;
20772;SDS011;10546;50.674;4.616;2022-12-16T23:49:23;78.93;;;30.80;;
20772;SDS011;10546;50.674;4.616;2022-12-16T23:52:07;78.73;;;32.97;;
20772;SDS011;10546;50.674;4.616;2022-12-16T23:54:51;71.37;;;31.57;;
20772;SDS011;10546;50.674;4.616;2022-12-16T23:57:35;66.53;;;29.93;;
